LIMF/TRN METAR and TAF weather

Enter ICAO airport designator
Station Type Date Time Source
LIMF METAR 2020/09/19 21:20 UTC NOAA

LIMF 192120Z VRB02KT 9999 BKN070 19/17 Q1018


Station Type Date Time Source
LIMF Decoded METAR 2020/09/19 21:20 UTC NOAA

Torino / Caselle, Italy (LIMF) 45-13N 007-39E 287M
Sep 19, 2020 - 05:20 PM EDT / 2020.09.19 2120 UTC
Wind: Variable at 2 MPH (2 KT):0
Visibility: greater than 7 mile(s):0
Sky conditions: mostly cloudy
Temperature: 66 F (19 C)
Dew Point: 62 F (17 C)
Relative Humidity: 88%
Pressure (altimeter): 30.06 in. Hg (1018 hPa)
ob: LIMF 192120Z VRB02KT 9999 BKN070 19/17 Q1018
cycle: 21

Station Type Date Time Source
LIMF TAF 2020/09/19 18:21 UTC NOAA

TAF LIMF 191700Z 1918/2018 VRB06KT 9999 SCT050
TEMPO 2008/2018 4000 TSRA

Example: see airport list